sensor_id;sensor_type;location;lat;lon;timestamp;P1;durP1;ratioP1;P2;durP2;ratioP2
52978;SDS011;63430;53.186;6.598;2023-04-06T00:01:33;19.83;;;18.13;;
52978;SDS011;63430;53.186;6.598;2023-04-06T00:03:36;16.27;;;14.98;;
52978;SDS011;63430;53.186;6.598;2023-04-06T00:05:39;18.65;;;17.35;;
52978;SDS011;63430;53.186;6.598;2023-04-06T00:07:42;20.23;;;18.42;;
52978;SDS011;63430;53.186;6.598;2023-04-06T00:09:44;19.92;;;18.38;;
52978;SDS011;63430;53.186;6.598;2023-04-06T00:11:51;15.18;;;14.18;;
52978;SDS011;63430;53.186;6.598;2023-04-06T00:13:58;22.45;;;20.92;;
52978;SDS011;63430;53.186;6.598;2023-04-06T00:16:10;19.15;;;17.73;;
52978;SDS011;63430;53.186;6.598;2023-04-06T00:18:13;19.40;;;18.13;;
52978;SDS011;63430;53.186;6.598;2023-04-06T00:20:16;20.38;;;19.08;;
52978;SDS011;63430;53.186;6.598;2023-04-06T00:22:19;19.10;;;17.65;;
52978;SDS011;63430;53.186;6.598;2023-04-06T00:24:22;19.52;;;18.13;;
52978;SDS011;63430;53.186;6.598;2023-04-06T00:26:24;17.90;;;16.60;;
52978;SDS011;63430;53.186;6.598;2023-04-06T00:28:32;16.92;;;15.73;;
52978;SDS011;63430;53.186;6.598;2023-04-06T00:30:43;11.20;;;10.30;;
52978;SDS011;63430;53.186;6.598;2023-04-06T00:32:46;15.75;;;14.25;;
52978;SDS011;63430;53.186;6.598;2023-04-06T00:34:53;19.58;;;18.23;;
52978;SDS011;63430;53.186;6.598;2023-04-06T00:36:56;18.83;;;17.17;;
52978;SDS011;63430;53.186;6.598;2023-04-06T00:39:19;15.88;;;14.65;;
52978;SDS011;63430;53.186;6.598;2023-04-06T00:41:22;17.75;;;16.55;;
52978;SDS011;63430;53.186;6.598;2023-04-06T00:43:25;15.35;;;14.15;;
52978;SDS011;63430;53.186;6.598;2023-04-06T00:45:31;17.13;;;15.75;;
52978;SDS011;63430;53.186;6.598;2023-04-06T00:47:34;14.20;;;13.20;;
52978;SDS011;63430;53.186;6.598;2023-04-06T00:49:37;14.55;;;12.93;;
52978;SDS011;63430;53.186;6.598;2023-04-06T00:51:39;17.40;;;16.00;;
52978;SDS011;63430;53.186;6.598;2023-04-06T00:53:42;17.95;;;16.55;;
52978;SDS011;63430;53.186;6.598;2023-04-06T00:55:46;15.63;;;14.23;;
52978;SDS011;63430;53.186;6.598;2023-04-06T00:57:49;15.48;;;14.18;;
52978;SDS011;63430;53.186;6.598;2023-04-06T01:00:13;11.73;;;10.73;;
52978;SDS011;63430;53.186;6.598;2023-04-06T01:02:21;14.40;;;13.20;;
52978;SDS011;63430;53.186;6.598;2023-04-06T01:04:27;17.52;;;16.23;;
52978;SDS011;63430;53.186;6.598;2023-04-06T01:06:30;15.18;;;13.25;;
52978;SDS011;63430;53.186;6.598;2023-04-06T01:08:39;14.88;;;13.57;;
52978;SDS011;63430;53.186;6.598;2023-04-06T01:11:01;15.68;;;14.32;;
52978;SDS011;63430;53.186;6.598;2023-04-06T01:13:07;15.98;;;14.45;;
52978;SDS011;63430;53.186;6.598;2023-04-06T01:15:19;18.73;;;17.30;;
52978;SDS011;63430;53.186;6.598;2023-04-06T01:17:30;16.45;;;15.15;;
52978;SDS011;63430;53.186;6.598;2023-04-06T01:19:40;16.83;;;15.65;;
52978;SDS011;63430;53.186;6.598;2023-04-06T01:21:47;17.15;;;15.90;;
52978;SDS011;63430;53.186;6.598;2023-04-06T01:24:14;13.55;;;12.45;;
52978;SDS011;63430;53.186;6.598;2023-04-06T01:26:43;14.45;;;13.23;;
52978;SDS011;63430;53.186;6.598;2023-04-06T01:28:48;16.23;;;14.90;;
52978;SDS011;63430;53.186;6.598;2023-04-06T01:30:59;18.15;;;16.83;;
52978;SDS011;63430;53.186;6.598;2023-04-06T01:33:14;18.02;;;16.73;;
52978;SDS011;63430;53.186;6.598;2023-04-06T01:35:33;17.30;;;16.17;;
52978;SDS011;63430;53.186;6.598;2023-04-06T01:37:45;17.80;;;16.30;;
52978;SDS011;63430;53.186;6.598;2023-04-06T01:39:59;15.50;;;14.27;;
52978;SDS011;63430;53.186;6.598;2023-04-06T01:42:15;13.27;;;12.27;;
52978;SDS011;63430;53.186;6.598;2023-04-06T01:44:22;17.52;;;15.73;;
52978;SDS011;63430;53.186;6.598;2023-04-06T01:46:36;16.38;;;15.07;;
52978;SDS011;63430;53.186;6.598;2023-04-06T01:48:40;16.48;;;15.13;;
52978;SDS011;63430;53.186;6.598;2023-04-06T01:51:12;13.15;;;12.05;;
52978;SDS011;63430;53.186;6.598;2023-04-06T01:53:23;14.82;;;13.52;;
52978;SDS011;63430;53.186;6.598;2023-04-06T01:55:30;15.50;;;14.23;;
52978;SDS011;63430;53.186;6.598;2023-04-06T01:57:57;16.23;;;14.75;;
52978;SDS011;63430;53.186;6.598;2023-04-06T02:00:10;16.52;;;15.13;;
52978;SDS011;63430;53.186;6.598;2023-04-06T02:02:23;16.10;;;13.50;;
52978;SDS011;63430;53.186;6.598;2023-04-06T02:04:40;11.55;;;10.43;;
52978;SDS011;63430;53.186;6.598;2023-04-06T02:06:47;15.57;;;14.27;;
52978;SDS011;63430;53.186;6.598;2023-04-06T02:08:54;17.23;;;15.63;;
52978;SDS011;63430;53.186;6.598;2023-04-06T02:11:00;24.00;;;22.48;;
52978;SDS011;63430;53.186;6.598;2023-04-06T02:13:18;24.77;;;22.67;;
52978;SDS011;63430;53.186;6.598;2023-04-06T02:15:24;23.92;;;22.13;;
52978;SDS011;63430;53.186;6.598;2023-04-06T02:17:27;24.17;;;22.55;;
52978;SDS011;63430;53.186;6.598;2023-04-06T02:19:30;30.92;;;29.02;;
52978;SDS011;63430;53.186;6.598;2023-04-06T02:21:33;25.25;;;23.67;;
52978;SDS011;63430;53.186;6.598;2023-04-06T02:23:36;22.55;;;20.88;;
52978;SDS011;63430;53.186;6.598;2023-04-06T02:25:38;27.33;;;25.38;;
52978;SDS011;63430;53.186;6.598;2023-04-06T02:27:44;21.52;;;19.73;;
52978;SDS011;63430;53.186;6.598;2023-04-06T02:29:47;18.65;;;17.23;;
52978;SDS011;63430;53.186;6.598;2023-04-06T02:31:54;26.80;;;24.98;;
52978;SDS011;63430;53.186;6.598;2023-04-06T02:33:57;30.25;;;28.42;;
52978;SDS011;63430;53.186;6.598;2023-04-06T02:36:03;24.20;;;22.58;;
52978;SDS011;63430;53.186;6.598;2023-04-06T02:38:06;22.27;;;20.70;;
52978;SDS011;63430;53.186;6.598;2023-04-06T02:40:09;27.08;;;25.38;;
52978;SDS011;63430;53.186;6.598;2023-04-06T02:42:15;24.30;;;22.63;;
52978;SDS011;63430;53.186;6.598;2023-04-06T02:44:23;20.73;;;19.05;;
52978;SDS011;63430;53.186;6.598;2023-04-06T02:46:26;20.60;;;19.15;;
52978;SDS011;63430;53.186;6.598;2023-04-06T02:48:29;18.80;;;17.33;;
52978;SDS011;63430;53.186;6.598;2023-04-06T02:50:32;28.17;;;26.35;;
52978;SDS011;63430;53.186;6.598;2023-04-06T02:52:38;28.98;;;27.13;;
52978;SDS011;63430;53.186;6.598;2023-04-06T02:54:42;23.55;;;22.05;;
52978;SDS011;63430;53.186;6.598;2023-04-06T02:56:45;22.88;;;21.23;;
52978;SDS011;63430;53.186;6.598;2023-04-06T02:58:50;28.70;;;26.80;;
52978;SDS011;63430;53.186;6.598;2023-04-06T03:00:57;23.00;;;21.33;;
52978;SDS011;63430;53.186;6.598;2023-04-06T03:03:00;22.77;;;20.92;;
52978;SDS011;63430;53.186;6.598;2023-04-06T03:05:04;29.27;;;27.52;;
52978;SDS011;63430;53.186;6.598;2023-04-06T03:07:11;24.05;;;22.23;;
52978;SDS011;63430;53.186;6.598;2023-04-06T03:09:14;26.35;;;24.38;;
52978;SDS011;63430;53.186;6.598;2023-04-06T03:11:18;26.58;;;24.95;;
52978;SDS011;63430;53.186;6.598;2023-04-06T03:13:21;23.70;;;22.27;;
52978;SDS011;63430;53.186;6.598;2023-04-06T03:15:28;27.70;;;25.80;;
52978;SDS011;63430;53.186;6.598;2023-04-06T03:17:46;19.77;;;18.25;;
52978;SDS011;63430;53.186;6.598;2023-04-06T03:20:15;16.38;;;15.23;;
52978;SDS011;63430;53.186;6.598;2023-04-06T03:22:17;20.13;;;18.48;;
52978;SDS011;63430;53.186;6.598;2023-04-06T03:24:22;19.77;;;18.38;;
52978;SDS011;63430;53.186;6.598;2023-04-06T03:26:24;20.88;;;19.48;;
52978;SDS011;63430;53.186;6.598;2023-04-06T03:28:27;19.05;;;17.63;;
52978;SDS011;63430;53.186;6.598;2023-04-06T03:30:33;21.58;;;19.52;;
52978;SDS011;63430;53.186;6.598;2023-04-06T03:32:36;20.30;;;18.67;;
52978;SDS011;63430;53.186;6.598;2023-04-06T03:34:49;18.98;;;17.58;;
52978;SDS011;63430;53.186;6.598;2023-04-06T03:36:52;23.48;;;21.77;;
52978;SDS011;63430;53.186;6.598;2023-04-06T03:39:11;19.42;;;17.52;;
52978;SDS011;63430;53.186;6.598;2023-04-06T03:41:16;18.98;;;17.45;;
52978;SDS011;63430;53.186;6.598;2023-04-06T03:43:47;18.40;;;16.98;;
52978;SDS011;63430;53.186;6.598;2023-04-06T03:45:51;21.90;;;20.30;;
52978;SDS011;63430;53.186;6.598;2023-04-06T03:47:54;19.08;;;17.00;;
52978;SDS011;63430;53.186;6.598;2023-04-06T03:50:00;14.27;;;13.02;;
52978;SDS011;63430;53.186;6.598;2023-04-06T03:52:19;16.20;;;14.80;;
52978;SDS011;63430;53.186;6.598;2023-04-06T03:54:26;18.45;;;17.05;;
52978;SDS011;63430;53.186;6.598;2023-04-06T03:56:28;17.55;;;16.35;;
52978;SDS011;63430;53.186;6.598;2023-04-06T03:58:31;19.33;;;17.92;;
52978;SDS011;63430;53.186;6.598;2023-04-06T04:00:34;16.20;;;14.77;;
52978;SDS011;63430;53.186;6.598;2023-04-06T04:02:37;15.98;;;13.73;;
52978;SDS011;63430;53.186;6.598;2023-04-06T04:04:40;19.83;;;18.25;;
52978;SDS011;63430;53.186;6.598;2023-04-06T04:06:45;17.58;;;16.08;;
52978;SDS011;63430;53.186;6.598;2023-04-06T04:08:49;16.75;;;15.20;;
52978;SDS011;63430;53.186;6.598;2023-04-06T04:10:53;14.93;;;13.82;;
52978;SDS011;63430;53.186;6.598;2023-04-06T04:12:56;17.40;;;16.20;;
52978;SDS011;63430;53.186;6.598;2023-04-06T04:14:59;18.85;;;17.45;;
52978;SDS011;63430;53.186;6.598;2023-04-06T04:17:02;16.42;;;14.77;;
52978;SDS011;63430;53.186;6.598;2023-04-06T04:19:15;18.23;;;16.65;;
52978;SDS011;63430;53.186;6.598;2023-04-06T04:21:29;15.10;;;13.68;;
52978;SDS011;63430;53.186;6.598;2023-04-06T04:23:43;12.85;;;11.75;;
52978;SDS011;63430;53.186;6.598;2023-04-06T04:25:46;15.05;;;13.77;;
52978;SDS011;63430;53.186;6.598;2023-04-06T04:27:54;19.08;;;17.50;;
52978;SDS011;63430;53.186;6.598;2023-04-06T04:29:58;19.90;;;18.50;;
52978;SDS011;63430;53.186;6.598;2023-04-06T04:32:20;16.63;;;15.13;;
52978;SDS011;63430;53.186;6.598;2023-04-06T04:34:43;17.85;;;13.20;;
52978;SDS011;63430;53.186;6.598;2023-04-06T04:37:16;13.55;;;12.45;;
52978;SDS011;63430;53.186;6.598;2023-04-06T04:39:47;16.10;;;14.65;;
52978;SDS011;63430;53.186;6.598;2023-04-06T04:42:09;12.43;;;11.35;;
52978;SDS011;63430;53.186;6.598;2023-04-06T04:44:18;16.23;;;14.93;;
52978;SDS011;63430;53.186;6.598;2023-04-06T04:46:21;15.88;;;14.38;;
52978;SDS011;63430;53.186;6.598;2023-04-06T04:48:25;15.98;;;14.85;;
52978;SDS011;63430;53.186;6.598;2023-04-06T04:50:35;12.88;;;11.77;;
52978;SDS011;63430;53.186;6.598;2023-04-06T04:52:37;14.90;;;13.57;;
52978;SDS011;63430;53.186;6.598;2023-04-06T04:54:53;13.73;;;12.40;;
52978;SDS011;63430;53.186;6.598;2023-04-06T04:57:00;13.20;;;12.10;;
52978;SDS011;63430;53.186;6.598;2023-04-06T04:59:29;12.80;;;11.80;;
52978;SDS011;63430;53.186;6.598;2023-04-06T05:01:43;13.07;;;11.87;;
52978;SDS011;63430;53.186;6.598;2023-04-06T05:04:01;13.40;;;12.23;;
52978;SDS011;63430;53.186;6.598;2023-04-06T05:06:04;16.27;;;15.07;;
52978;SDS011;63430;53.186;6.598;2023-04-06T05:08:11;14.60;;;13.52;;
52978;SDS011;63430;53.186;6.598;2023-04-06T05:10:21;15.13;;;13.90;;
52978;SDS011;63430;53.186;6.598;2023-04-06T05:12:31;14.05;;;13.05;;
52978;SDS011;63430;53.186;6.598;2023-04-06T05:14:50;16.38;;;15.05;;
52978;SDS011;63430;53.186;6.598;2023-04-06T05:16:54;13.95;;;12.65;;
52978;SDS011;63430;53.186;6.598;2023-04-06T05:19:00;15.70;;;14.35;;
52978;SDS011;63430;53.186;6.598;2023-04-06T05:21:10;13.73;;;12.63;;
52978;SDS011;63430;53.186;6.598;2023-04-06T05:23:28;14.20;;;12.88;;
52978;SDS011;63430;53.186;6.598;2023-04-06T05:25:34;15.52;;;13.95;;
52978;SDS011;63430;53.186;6.598;2023-04-06T05:27:47;13.63;;;12.48;;
52978;SDS011;63430;53.186;6.598;2023-04-06T05:30:08;14.32;;;13.20;;
52978;SDS011;63430;53.186;6.598;2023-04-06T05:32:17;13.93;;;12.57;;
52978;SDS011;63430;53.186;6.598;2023-04-06T05:34:25;13.73;;;12.63;;
52978;SDS011;63430;53.186;6.598;2023-04-06T05:36:28;14.60;;;13.35;;
52978;SDS011;63430;53.186;6.598;2023-04-06T05:38:36;12.52;;;11.23;;
52978;SDS011;63430;53.186;6.598;2023-04-06T05:40:52;10.77;;;9.98;;
52978;SDS011;63430;53.186;6.598;2023-04-06T05:42:59;14.13;;;12.73;;
52978;SDS011;63430;53.186;6.598;2023-04-06T05:45:03;11.38;;;10.27;;
52978;SDS011;63430;53.186;6.598;2023-04-06T05:47:07;11.88;;;10.77;;
52978;SDS011;63430;53.186;6.598;2023-04-06T05:49:11;11.65;;;10.05;;
52978;SDS011;63430;53.186;6.598;2023-04-06T05:51:14;13.52;;;12.63;;
52978;SDS011;63430;53.186;6.598;2023-04-06T05:53:22;12.38;;;11.48;;
52978;SDS011;63430;53.186;6.598;2023-04-06T05:55:31;13.95;;;11.77;;
52978;SDS011;63430;53.186;6.598;2023-04-06T05:57:59;15.02;;;13.73;;
52978;SDS011;63430;53.186;6.598;2023-04-06T06:00:02;13.68;;;12.45;;
52978;SDS011;63430;53.186;6.598;2023-04-06T06:02:23;12.95;;;11.57;;
52978;SDS011;63430;53.186;6.598;2023-04-06T06:04:27;12.73;;;11.55;;
52978;SDS011;63430;53.186;6.598;2023-04-06T06:06:32;13.82;;;12.45;;
52978;SDS011;63430;53.186;6.598;2023-04-06T06:09:04;15.07;;;12.02;;
52978;SDS011;63430;53.186;6.598;2023-04-06T06:11:12;14.50;;;11.18;;
52978;SDS011;63430;53.186;6.598;2023-04-06T06:13:18;12.05;;;10.85;;
52978;SDS011;63430;53.186;6.598;2023-04-06T06:15:21;13.15;;;12.07;;
52978;SDS011;63430;53.186;6.598;2023-04-06T06:19:28;13.30;;;11.38;;
52978;SDS011;63430;53.186;6.598;2023-04-06T06:21:35;11.23;;;10.23;;
52978;SDS011;63430;53.186;6.598;2023-04-06T06:23:44;13.07;;;11.18;;
52978;SDS011;63430;53.186;6.598;2023-04-06T06:25:50;13.70;;;10.50;;
52978;SDS011;63430;53.186;6.598;2023-04-06T06:27:55;14.43;;;13.13;;
52978;SDS011;63430;53.186;6.598;2023-04-06T06:30:00;17.17;;;15.85;;
52978;SDS011;63430;53.186;6.598;2023-04-06T06:32:05;16.92;;;14.75;;
52978;SDS011;63430;53.186;6.598;2023-04-06T06:34:11;14.23;;;13.18;;
52978;SDS011;63430;53.186;6.598;2023-04-06T06:36:15;16.88;;;15.30;;
52978;SDS011;63430;53.186;6.598;2023-04-06T06:38:21;12.38;;;11.23;;
52978;SDS011;63430;53.186;6.598;2023-04-06T06:40:25;16.00;;;14.45;;
52978;SDS011;63430;53.186;6.598;2023-04-06T06:42:30;14.98;;;13.75;;
52978;SDS011;63430;53.186;6.598;2023-04-06T06:44:42;10.52;;;9.52;;
52978;SDS011;63430;53.186;6.598;2023-04-06T06:46:51;13.07;;;11.98;;
52978;SDS011;63430;53.186;6.598;2023-04-06T06:48:58;12.68;;;10.93;;
52978;SDS011;63430;53.186;6.598;2023-04-06T06:51:01;11.07;;;10.10;;
52978;SDS011;63430;53.186;6.598;2023-04-06T06:53:04;9.98;;;8.98;;
52978;SDS011;63430;53.186;6.598;2023-04-06T06:55:09;12.55;;;10.38;;
52978;SDS011;63430;53.186;6.598;2023-04-06T06:59:16;10.40;;;9.38;;
52978;SDS011;63430;53.186;6.598;2023-04-06T07:01:19;11.95;;;9.52;;
52978;SDS011;63430;53.186;6.598;2023-04-06T07:03:25;9.88;;;8.88;;
52978;SDS011;63430;53.186;6.598;2023-04-06T07:05:29;11.50;;;9.90;;
52978;SDS011;63430;53.186;6.598;2023-04-06T07:07:32;12.88;;;10.43;;
52978;SDS011;63430;53.186;6.598;2023-04-06T07:09:35;10.95;;;9.45;;
52978;SDS011;63430;53.186;6.598;2023-04-06T07:11:38;10.40;;;9.32;;
52978;SDS011;63430;53.186;6.598;2023-04-06T07:13:40;12.50;;;10.20;;
52978;SDS011;63430;53.186;6.598;2023-04-06T07:17:47;11.43;;;10.43;;
52978;SDS011;63430;53.186;6.598;2023-04-06T07:19:52;13.57;;;10.15;;
52978;SDS011;63430;53.186;6.598;2023-04-06T07:21:55;16.23;;;15.02;;
52978;SDS011;63430;53.186;6.598;2023-04-06T07:23:58;16.38;;;15.27;;
52978;SDS011;63430;53.186;6.598;2023-04-06T07:26:00;16.50;;;15.18;;
52978;SDS011;63430;53.186;6.598;2023-04-06T07:28:04;16.65;;;14.93;;
52978;SDS011;63430;53.186;6.598;2023-04-06T07:30:07;17.48;;;15.73;;
52978;SDS011;63430;53.186;6.598;2023-04-06T07:34:13;17.50;;;15.68;;
52978;SDS011;63430;53.186;6.598;2023-04-06T07:36:19;19.88;;;17.50;;
52978;SDS011;63430;53.186;6.598;2023-04-06T07:38:23;23.88;;;21.92;;
52978;SDS011;63430;53.186;6.598;2023-04-06T07:40:26;19.73;;;17.80;;
52978;SDS011;63430;53.186;6.598;2023-04-06T07:42:31;28.20;;;26.17;;
52978;SDS011;63430;53.186;6.598;2023-04-06T07:44:35;28.80;;;27.05;;
52978;SDS011;63430;53.186;6.598;2023-04-06T07:46:38;31.55;;;29.63;;
52978;SDS011;63430;53.186;6.598;2023-04-06T07:48:41;38.20;;;35.85;;
52978;SDS011;63430;53.186;6.598;2023-04-06T07:50:43;37.47;;;34.97;;
52978;SDS011;63430;53.186;6.598;2023-04-06T07:52:49;23.02;;;21.45;;
52978;SDS011;63430;53.186;6.598;2023-04-06T07:54:55;43.42;;;40.90;;
52978;SDS011;63430;53.186;6.598;2023-04-06T07:56:58;37.28;;;35.08;;
52978;SDS011;63430;53.186;6.598;2023-04-06T07:59:01;22.08;;;20.20;;
52978;SDS011;63430;53.186;6.598;2023-04-06T08:01:04;40.42;;;37.92;;
52978;SDS011;63430;53.186;6.598;2023-04-06T08:03:07;31.15;;;29.30;;
52978;SDS011;63430;53.186;6.598;2023-04-06T08:05:10;36.00;;;33.53;;
52978;SDS011;63430;53.186;6.598;2023-04-06T08:07:15;30.63;;;28.63;;
52978;SDS011;63430;53.186;6.598;2023-04-06T08:09:21;46.72;;;43.85;;
52978;SDS011;63430;53.186;6.598;2023-04-06T08:11:23;34.20;;;31.98;;
52978;SDS011;63430;53.186;6.598;2023-04-06T08:13:26;46.63;;;43.83;;
52978;SDS011;63430;53.186;6.598;2023-04-06T08:15:30;41.78;;;39.30;;
52978;SDS011;63430;53.186;6.598;2023-04-06T08:17:32;70.70;;;67.13;;
52978;SDS011;63430;53.186;6.598;2023-04-06T08:19:35;149.63;;;142.07;;
52978;SDS011;63430;53.186;6.598;2023-04-06T08:23:46;59.08;;;56.05;;
52978;SDS011;63430;53.186;6.598;2023-04-06T08:25:51;64.22;;;60.65;;
52978;SDS011;63430;53.186;6.598;2023-04-06T08:27:55;55.28;;;52.17;;
52978;SDS011;63430;53.186;6.598;2023-04-06T08:29:58;50.17;;;47.35;;
52978;SDS011;63430;53.186;6.598;2023-04-06T08:32:01;76.38;;;72.70;;
52978;SDS011;63430;53.186;6.598;2023-04-06T08:34:07;72.07;;;68.30;;
52978;SDS011;63430;53.186;6.598;2023-04-06T08:36:14;78.10;;;74.20;;
52978;SDS011;63430;53.186;6.598;2023-04-06T08:38:16;87.47;;;83.13;;
52978;SDS011;63430;53.186;6.598;2023-04-06T08:40:19;92.35;;;87.95;;
52978;SDS011;63430;53.186;6.598;2023-04-06T08:42:25;85.60;;;81.30;;
52978;SDS011;63430;53.186;6.598;2023-04-06T08:44:30;83.90;;;79.50;;
52978;SDS011;63430;53.186;6.598;2023-04-06T08:46:33;107.43;;;102.18;;
52978;SDS011;63430;53.186;6.598;2023-04-06T08:48:36;101.65;;;96.47;;
52978;SDS011;63430;53.186;6.598;2023-04-06T08:50:41;107.95;;;102.60;;
52978;SDS011;63430;53.186;6.598;2023-04-06T08:52:44;110.90;;;105.78;;
52978;SDS011;63430;53.186;6.598;2023-04-06T08:54:49;96.78;;;92.07;;
52978;SDS011;63430;53.186;6.598;2023-04-06T08:56:52;97.13;;;92.60;;
52978;SDS011;63430;53.186;6.598;2023-04-06T08:58:58;97.05;;;92.47;;
52978;SDS011;63430;53.186;6.598;2023-04-06T09:01:01;57.88;;;54.78;;
52978;SDS011;63430;53.186;6.598;2023-04-06T09:03:07;118.82;;;113.20;;
52978;SDS011;63430;53.186;6.598;2023-04-06T09:05:14;121.68;;;116.07;;
52978;SDS011;63430;53.186;6.598;2023-04-06T09:07:17;80.85;;;76.63;;
52978;SDS011;63430;53.186;6.598;2023-04-06T09:09:20;117.82;;;112.18;;
52978;SDS011;63430;53.186;6.598;2023-04-06T09:11:25;53.00;;;50.17;;
52978;SDS011;63430;53.186;6.598;2023-04-06T09:13:28;108.28;;;103.07;;
52978;SDS011;63430;53.186;6.598;2023-04-06T09:15:33;135.52;;;128.95;;
52978;SDS011;63430;53.186;6.598;2023-04-06T09:17:36;99.80;;;95.15;;
52978;SDS011;63430;53.186;6.598;2023-04-06T09:19:44;114.55;;;109.28;;
52978;SDS011;63430;53.186;6.598;2023-04-06T09:21:47;58.47;;;55.03;;
52978;SDS011;63430;53.186;6.598;2023-04-06T09:23:57;100.50;;;95.53;;
52978;SDS011;63430;53.186;6.598;2023-04-06T09:26:05;51.70;;;48.45;;
52978;SDS011;63430;53.186;6.598;2023-04-06T09:28:08;31.58;;;29.48;;
52978;SDS011;63430;53.186;6.598;2023-04-06T09:30:12;83.15;;;78.97;;
52978;SDS011;63430;53.186;6.598;2023-04-06T09:32:21;36.28;;;34.15;;
52978;SDS011;63430;53.186;6.598;2023-04-06T09:34:24;41.30;;;38.80;;
52978;SDS011;63430;53.186;6.598;2023-04-06T09:36:30;34.67;;;32.45;;
52978;SDS011;63430;53.186;6.598;2023-04-06T09:38:33;35.50;;;33.28;;
52978;SDS011;63430;53.186;6.598;2023-04-06T09:40:36;56.95;;;54.08;;
52978;SDS011;63430;53.186;6.598;2023-04-06T09:45:06;39.25;;;36.80;;
52978;SDS011;63430;53.186;6.598;2023-04-06T09:47:10;36.08;;;33.55;;
52978;SDS011;63430;53.186;6.598;2023-04-06T09:49:15;33.60;;;30.70;;
52978;SDS011;63430;53.186;6.598;2023-04-06T09:51:28;63.28;;;60.08;;
52978;SDS011;63430;53.186;6.598;2023-04-06T09:53:35;39.70;;;37.35;;
52978;SDS011;63430;53.186;6.598;2023-04-06T09:55:43;92.80;;;87.93;;
52978;SDS011;63430;53.186;6.598;2023-04-06T09:57:48;60.65;;;57.38;;
52978;SDS011;63430;53.186;6.598;2023-04-06T09:59:56;40.28;;;37.83;;
52978;SDS011;63430;53.186;6.598;2023-04-06T10:02:14;35.58;;;33.03;;
52978;SDS011;63430;53.186;6.598;2023-04-06T10:04:32;44.95;;;42.22;;
52978;SDS011;63430;53.186;6.598;2023-04-06T10:06:42;44.35;;;41.67;;
52978;SDS011;63430;53.186;6.598;2023-04-06T10:08:49;56.45;;;53.25;;
52978;SDS011;63430;53.186;6.598;2023-04-06T10:10:53;42.08;;;39.67;;
52978;SDS011;63430;53.186;6.598;2023-04-06T10:12:56;56.37;;;53.47;;
52978;SDS011;63430;53.186;6.598;2023-04-06T10:15:00;54.58;;;51.30;;
52978;SDS011;63430;53.186;6.598;2023-04-06T10:17:02;51.72;;;48.72;;
52978;SDS011;63430;53.186;6.598;2023-04-06T10:19:09;65.15;;;61.45;;
52978;SDS011;63430;53.186;6.598;2023-04-06T10:21:19;54.17;;;50.97;;
52978;SDS011;63430;53.186;6.598;2023-04-06T10:23:26;63.65;;;59.90;;
52978;SDS011;63430;53.186;6.598;2023-04-06T10:25:34;50.47;;;47.70;;
52978;SDS011;63430;53.186;6.598;2023-04-06T10:27:41;59.00;;;55.45;;
52978;SDS011;63430;53.186;6.598;2023-04-06T10:29:44;47.25;;;44.33;;
52978;SDS011;63430;53.186;6.598;2023-04-06T10:31:48;48.33;;;45.53;;
52978;SDS011;63430;53.186;6.598;2023-04-06T10:33:54;55.47;;;52.22;;
52978;SDS011;63430;53.186;6.598;2023-04-06T10:36:08;56.45;;;53.30;;
52978;SDS011;63430;53.186;6.598;2023-04-06T10:38:14;62.70;;;59.03;;
52978;SDS011;63430;53.186;6.598;2023-04-06T10:40:22;55.53;;;51.92;;
52978;SDS011;63430;53.186;6.598;2023-04-06T10:42:35;65.57;;;61.53;;
52978;SDS011;63430;53.186;6.598;2023-04-06T10:44:41;76.40;;;72.47;;
52978;SDS011;63430;53.186;6.598;2023-04-06T10:46:52;73.15;;;69.20;;
52978;SDS011;63430;53.186;6.598;2023-04-06T10:48:56;56.13;;;52.83;;
52978;SDS011;63430;53.186;6.598;2023-04-06T10:50:59;60.03;;;56.37;;
52978;SDS011;63430;53.186;6.598;2023-04-06T10:53:02;41.03;;;37.67;;
52978;SDS011;63430;53.186;6.598;2023-04-06T10:55:08;42.08;;;39.25;;
52978;SDS011;63430;53.186;6.598;2023-04-06T10:57:14;46.20;;;43.05;;
52978;SDS011;63430;53.186;6.598;2023-04-06T10:59:18;42.92;;;40.15;;
52978;SDS011;63430;53.186;6.598;2023-04-06T11:01:22;41.42;;;38.83;;
52978;SDS011;63430;53.186;6.598;2023-04-06T11:03:26;39.83;;;37.03;;
52978;SDS011;63430;53.186;6.598;2023-04-06T11:05:29;26.50;;;23.95;;
52978;SDS011;63430;53.186;6.598;2023-04-06T11:07:35;22.42;;;19.40;;
52978;SDS011;63430;53.186;6.598;2023-04-06T11:09:38;28.52;;;25.88;;
52978;SDS011;63430;53.186;6.598;2023-04-06T11:11:44;22.07;;;16.30;;
52978;SDS011;63430;53.186;6.598;2023-04-06T11:13:48;32.78;;;23.20;;
52978;SDS011;63430;53.186;6.598;2023-04-06T11:15:52;29.33;;;22.98;;
52978;SDS011;63430;53.186;6.598;2023-04-06T11:17:55;29.05;;;18.20;;
52978;SDS011;63430;53.186;6.598;2023-04-06T11:19:58;27.35;;;23.98;;
52978;SDS011;63430;53.186;6.598;2023-04-06T11:22:06;24.70;;;22.10;;
52978;SDS011;63430;53.186;6.598;2023-04-06T11:24:10;22.80;;;17.27;;
52978;SDS011;63430;53.186;6.598;2023-04-06T11:26:13;33.35;;;21.42;;
52978;SDS011;63430;53.186;6.598;2023-04-06T11:28:19;36.70;;;19.90;;
52978;SDS011;63430;53.186;6.598;2023-04-06T11:30:25;27.73;;;20.80;;
52978;SDS011;63430;53.186;6.598;2023-04-06T11:32:28;22.45;;;17.33;;
52978;SDS011;63430;53.186;6.598;2023-04-06T11:34:32;25.20;;;17.48;;
52978;SDS011;63430;53.186;6.598;2023-04-06T11:36:41;27.75;;;21.13;;
52978;SDS011;63430;53.186;6.598;2023-04-06T11:38:47;26.40;;;17.50;;
52978;SDS011;63430;53.186;6.598;2023-04-06T11:40:52;26.20;;;21.42;;
52978;SDS011;63430;53.186;6.598;2023-04-06T11:42:55;22.95;;;16.15;;
52978;SDS011;63430;53.186;6.598;2023-04-06T11:45:02;27.35;;;18.95;;
52978;SDS011;63430;53.186;6.598;2023-04-06T11:47:07;30.30;;;24.50;;
52978;SDS011;63430;53.186;6.598;2023-04-06T11:49:11;23.38;;;17.23;;
52978;SDS011;63430;53.186;6.598;2023-04-06T11:51:21;28.52;;;22.92;;
52978;SDS011;63430;53.186;6.598;2023-04-06T11:53:28;24.92;;;21.88;;
52978;SDS011;63430;53.186;6.598;2023-04-06T11:55:36;28.03;;;19.23;;
52978;SDS011;63430;53.186;6.598;2023-04-06T11:57:40;33.92;;;26.98;;
52978;SDS011;63430;53.186;6.598;2023-04-06T11:59:43;30.40;;;21.92;;
52978;SDS011;63430;53.186;6.598;2023-04-06T12:01:48;33.72;;;30.17;;
52978;SDS011;63430;53.186;6.598;2023-04-06T12:03:52;32.83;;;29.88;;
52978;SDS011;63430;53.186;6.598;2023-04-06T12:05:54;25.33;;;21.45;;
52978;SDS011;63430;53.186;6.598;2023-04-06T12:08:00;24.63;;;21.40;;
52978;SDS011;63430;53.186;6.598;2023-04-06T12:10:04;22.58;;;18.80;;
52978;SDS011;63430;53.186;6.598;2023-04-06T12:12:08;31.75;;;28.35;;
52978;SDS011;63430;53.186;6.598;2023-04-06T12:14:11;27.73;;;21.58;;
52978;SDS011;63430;53.186;6.598;2023-04-06T12:16:13;34.80;;;31.83;;
52978;SDS011;63430;53.186;6.598;2023-04-06T12:18:19;25.08;;;16.95;;
52978;SDS011;63430;53.186;6.598;2023-04-06T12:20:21;23.35;;;17.90;;
52978;SDS011;63430;53.186;6.598;2023-04-06T12:22:28;27.73;;;19.58;;
52978;SDS011;63430;53.186;6.598;2023-04-06T12:24:30;24.65;;;18.00;;
52978;SDS011;63430;53.186;6.598;2023-04-06T12:26:33;30.80;;;27.85;;
52978;SDS011;63430;53.186;6.598;2023-04-06T12:28:36;27.63;;;23.83;;
52978;SDS011;63430;53.186;6.598;2023-04-06T12:30:39;26.92;;;22.88;;
52978;SDS011;63430;53.186;6.598;2023-04-06T12:32:42;25.45;;;17.67;;
52978;SDS011;63430;53.186;6.598;2023-04-06T12:34:48;21.73;;;18.10;;